createdAt,value
2022-10-11T00:02:05.435Z,101280.91
2022-10-11T00:04:32.268Z,101287.38
2022-10-11T00:06:59.190Z,101277.63
2022-10-11T00:09:26.069Z,101279.91
2022-10-11T00:11:56.231Z,101289.91
2022-10-11T00:14:24.151Z,101279.66
2022-10-11T00:16:50.989Z,101288.59
2022-10-11T00:19:17.908Z,101289.16
2022-10-11T00:21:44.991Z,101280.03
2022-10-11T00:24:12.141Z,101291.28
2022-10-11T00:26:42.085Z,101294.34
2022-10-11T00:29:12.669Z,101294.94
2022-10-11T00:31:40.029Z,101293.50
2022-10-11T00:34:07.672Z,101286.34
2022-10-11T00:36:34.608Z,101291.56
2022-10-11T00:39:01.469Z,101285.38
2022-10-11T00:41:28.410Z,101290.59
2022-10-11T00:44:19.503Z,101294.38
2022-10-11T00:46:55.877Z,101284.38
2022-10-11T00:49:25.867Z,101287.22
2022-10-11T00:51:55.369Z,101279.75
2022-10-11T00:54:24.031Z,101284.97
2022-10-11T00:56:54.090Z,101290.41
2022-10-11T00:59:26.829Z,101288.84
2022-10-11T01:01:53.810Z,101290.53
2022-10-11T01:04:20.729Z,101288.41
2022-10-11T01:06:47.851Z,101291.00
2022-10-11T01:09:14.790Z,101275.69
2022-10-11T01:11:41.899Z,101290.78
2022-10-11T01:14:29.210Z,101285.44
2022-10-11T01:16:56.010Z,101283.22
2022-10-11T01:19:44.621Z,101283.81
2022-10-11T01:22:14.048Z,101291.41
2022-10-11T01:25:01.911Z,101283.50
2022-10-11T01:27:47.348Z,101295.22
2022-10-11T01:30:21.430Z,101304.84
2022-10-11T01:33:03.468Z,101295.97
2022-10-11T01:35:42.329Z,101307.47
2022-10-11T01:38:14.730Z,101296.34
2022-10-11T01:41:09.330Z,101303.47
2022-10-11T01:43:36.628Z,101306.56
2022-10-11T01:46:03.918Z,101303.16
2022-10-11T01:48:31.087Z,101306.00
2022-10-11T01:50:58.872Z,101300.31
2022-10-11T01:53:49.067Z,101302.34
2022-10-11T01:56:39.570Z,101299.88
2022-10-11T01:59:20.023Z,101296.78
2022-10-11T02:02:06.229Z,101290.13
2022-10-11T02:04:33.988Z,101294.16
2022-10-11T02:07:23.347Z,101305.91
2022-10-11T02:09:54.809Z,101300.44
2022-10-11T02:12:25.988Z,101298.66
2022-10-11T02:14:52.892Z,101296.41
2022-10-11T02:17:21.649Z,101299.84
2022-10-11T02:19:50.828Z,101304.72
2022-10-11T02:22:33.673Z,101302.03
2022-10-11T02:25:00.986Z,101306.28
2022-10-11T02:27:29.991Z,101315.53
2022-10-11T02:29:57.021Z,101311.00
2022-10-11T02:32:24.249Z,101318.47
2022-10-11T02:34:53.936Z,101323.31
2022-10-11T02:37:29.689Z,101322.84
2022-10-11T02:40:25.492Z,101327.47
2022-10-11T02:42:59.610Z,101320.91
2022-10-11T02:45:46.929Z,101334.09
2022-10-11T02:48:13.829Z,101334.78
2022-10-11T02:50:40.710Z,101321.25
2022-10-11T02:53:07.868Z,101346.44
2022-10-11T02:55:34.950Z,101343.13
2022-10-11T02:58:01.866Z,101328.34
2022-10-11T03:00:28.831Z,101342.50
2022-10-11T03:02:55.729Z,101339.50
2022-10-11T03:05:22.550Z,101347.78
2022-10-11T03:07:49.448Z,101341.59
2022-10-11T03:10:16.429Z,101345.41
2022-10-11T03:12:43.386Z,101334.16
2022-10-11T03:15:10.715Z,101343.69
2022-10-11T03:17:37.770Z,101340.63
2022-10-11T03:20:06.128Z,101355.25
2022-10-11T03:22:33.008Z,101352.25
2022-10-11T03:25:04.117Z,101351.28
2022-10-11T03:27:32.773Z,101351.06
2022-10-11T03:29:59.748Z,101353.50
2022-10-11T03:32:26.630Z,101362.22
2022-10-11T03:34:53.487Z,101356.13
2022-10-11T03:37:20.407Z,101349.09
2022-10-11T03:39:47.210Z,101356.28
2022-10-11T03:42:14.187Z,101358.03
2022-10-11T03:44:42.255Z,101356.28
2022-10-11T03:47:09.211Z,101373.88
2022-10-11T03:49:38.798Z,101362.56
2022-10-11T03:52:08.189Z,101376.50
2022-10-11T03:54:35.048Z,101386.22
2022-10-11T03:57:01.869Z,101395.03
2022-10-11T03:59:28.808Z,101389.06
2022-10-11T04:01:55.705Z,101386.00
2022-10-11T04:04:22.669Z,101398.09
2022-10-11T04:06:49.471Z,101399.56
2022-10-11T04:09:16.310Z,101395.50
2022-10-11T04:11:43.190Z,101404.63
2022-10-11T04:14:10.009Z,101397.72
2022-10-11T04:16:38.859Z,101395.28
2022-10-11T04:19:05.867Z,101404.53
2022-10-11T04:21:32.730Z,101412.38
2022-10-11T04:23:59.588Z,101409.03
2022-10-11T04:26:26.427Z,101409.16
2022-10-11T04:28:53.469Z,101402.88
2022-10-11T04:31:20.374Z,101408.34
2022-10-11T04:33:47.308Z,101431.28
2022-10-11T04:36:14.170Z,101415.13
2022-10-11T04:38:41.149Z,101414.75
2022-10-11T04:41:09.166Z,101423.56
2022-10-11T04:43:36.268Z,101442.47
2022-10-11T04:46:03.329Z,101440.69
2022-10-11T04:48:30.270Z,101451.25
2022-10-11T04:50:57.248Z,101467.19
2022-10-11T04:53:24.429Z,101477.41
2022-10-11T04:56:02.065Z,101477.75
2022-10-11T04:58:29.928Z,101472.19
2022-10-11T05:00:57.024Z,101477.06
2022-10-11T05:03:24.271Z,101482.31
2022-10-11T05:05:51.191Z,101491.94
2022-10-11T05:08:18.029Z,101500.72
2022-10-11T05:11:01.067Z,101495.72
2022-10-11T05:13:28.490Z,101501.31
2022-10-11T05:15:55.330Z,101500.13
2022-10-11T05:18:22.690Z,101499.31
2022-10-11T05:20:49.796Z,101500.72
2022-10-11T05:23:16.712Z,101516.19
2022-10-11T05:25:43.627Z,101522.13
2022-10-11T05:28:10.583Z,101524.03
2022-10-11T05:30:37.492Z,101533.53
2022-10-11T05:33:04.433Z,101526.06
2022-10-11T05:35:31.351Z,101535.19
2022-10-11T05:37:58.173Z,101546.03
2022-10-11T05:40:25.050Z,101549.22
2022-10-11T05:42:51.929Z,101541.28
2022-10-11T05:45:18.809Z,101552.34
2022-10-11T05:47:45.728Z,101562.22
2022-10-11T05:50:12.610Z,101562.69
2022-10-11T05:52:39.510Z,101571.03
2022-10-11T05:55:06.910Z,101578.41
2022-10-11T05:57:33.811Z,101568.63
2022-10-11T06:00:00.690Z,101563.88
2022-10-11T06:02:27.571Z,101576.59
2022-10-11T06:04:54.409Z,101584.28
2022-10-11T06:07:21.207Z,101578.66
2022-10-11T06:09:48.132Z,101589.88
2022-10-11T06:12:15.348Z,101592.69
2022-10-11T06:14:42.293Z,101585.00
2022-10-11T06:17:09.149Z,101578.47
2022-10-11T06:19:36.070Z,101607.25
2022-10-11T06:22:03.013Z,101613.50
2022-10-11T06:24:29.889Z,101616.19
2022-10-11T06:26:57.072Z,101614.28
2022-10-11T06:29:23.927Z,101614.50
2022-10-11T06:31:50.836Z,101624.16
2022-10-11T06:34:17.690Z,101615.13
2022-10-11T06:36:44.569Z,101631.09
2022-10-11T06:39:11.812Z,101635.56
2022-10-11T06:41:38.709Z,101622.63
2022-10-11T06:44:07.190Z,101646.63
2022-10-11T06:46:35.588Z,101641.75
2022-10-11T06:49:02.509Z,101654.75
2022-10-11T06:51:30.273Z,101640.94
2022-10-11T06:53:58.166Z,101645.22
2022-10-11T06:56:28.912Z,101642.31
2022-10-11T06:58:56.410Z,101655.03
2022-10-11T07:01:24.079Z,101663.25
2022-10-11T07:03:52.149Z,101660.25
2022-10-11T07:06:23.571Z,101650.72
2022-10-11T07:08:50.513Z,101646.06
2022-10-11T07:11:21.829Z,101659.28
2022-10-11T07:13:53.530Z,101672.63
2022-10-11T07:16:20.708Z,101678.72
2022-10-11T07:18:47.911Z,101680.56
2022-10-11T07:21:15.727Z,101669.34
2022-10-11T07:23:42.891Z,101672.47
2022-10-11T07:26:10.768Z,101679.84
2022-10-11T07:28:38.044Z,101689.53
2022-10-11T07:31:09.744Z,101669.19
2022-10-11T07:33:36.733Z,101669.09
2022-10-11T07:36:04.780Z,101680.09
2022-10-11T07:38:32.548Z,101688.75
2022-10-11T07:40:59.489Z,101689.63
2022-10-11T07:43:26.381Z,101689.66
2022-10-11T07:45:57.170Z,101701.41
2022-10-11T07:48:24.009Z,101701.66
2022-10-11T07:50:50.870Z,101706.03
2022-10-11T07:53:18.109Z,101707.47
2022-10-11T07:55:45.010Z,101694.22
2022-10-11T07:58:12.609Z,101706.19
2022-10-11T08:00:42.285Z,101695.03
2022-10-11T08:03:09.669Z,101699.75
2022-10-11T08:05:37.695Z,101714.38
2022-10-11T08:08:04.809Z,101702.41
2022-10-11T08:10:31.751Z,101707.38
2022-10-11T08:13:03.383Z,101706.44
2022-10-11T08:15:31.214Z,101717.47
2022-10-11T08:17:58.007Z,101698.13
2022-10-11T08:20:24.886Z,101716.06
2022-10-11T08:22:51.710Z,101722.84
2022-10-11T08:25:18.627Z,101721.41
2022-10-11T08:27:45.443Z,101723.34
2022-10-11T08:30:12.963Z,101723.03
2022-10-11T08:32:39.842Z,101725.75
2022-10-11T08:35:07.288Z,101728.00
2022-10-11T08:37:34.154Z,101731.50
2022-10-11T08:40:02.754Z,101728.69
2022-10-11T08:42:39.007Z,101746.00
2022-10-11T08:45:11.745Z,101741.44
2022-10-11T08:47:44.388Z,101748.56
2022-10-11T08:50:20.253Z,101747.25
2022-10-11T08:52:48.834Z,101749.25
2022-10-11T08:55:44.137Z,101739.22
2022-10-11T08:58:16.531Z,101745.81
2022-10-11T09:00:43.430Z,101737.03
2022-10-11T09:03:34.880Z,101757.53
2022-10-11T09:06:21.825Z,101755.41
2022-10-11T09:09:27.241Z,101758.53
2022-10-11T09:12:33.569Z,101758.16
2022-10-11T09:15:14.920Z,101765.09
2022-10-11T09:18:10.439Z,101767.22
2022-10-11T09:20:53.254Z,101768.69
2022-10-11T09:23:19.971Z,101773.16
2022-10-11T09:25:55.269Z,101765.03
2022-10-11T09:28:46.103Z,101765.88
2022-10-11T09:31:13.000Z,101776.16
2022-10-11T09:33:48.077Z,101771.97
2022-10-11T09:36:23.022Z,101780.59
2022-10-11T09:38:57.594Z,101792.72
2022-10-11T09:41:42.840Z,101787.34
2022-10-11T09:44:11.969Z,101778.56
2022-10-11T09:46:41.344Z,101778.03
2022-10-11T09:49:13.691Z,101796.47
2022-10-11T09:51:41.920Z,101799.41
2022-10-11T09:54:10.943Z,101806.19
2022-10-11T09:56:42.716Z,101801.66
2022-10-11T09:59:33.880Z,101810.16
2022-10-11T10:02:17.115Z,101832.53
2022-10-11T10:05:04.392Z,101833.47
2022-10-11T10:07:32.410Z,101826.75
2022-10-11T10:09:59.573Z,101846.78
2022-10-11T10:12:28.436Z,101847.13
2022-10-11T10:15:14.187Z,101859.88
2022-10-11T10:17:47.741Z,101872.69
2022-10-11T10:20:27.388Z,101873.63
2022-10-11T10:22:54.262Z,101864.59
2022-10-11T10:25:43.663Z,101886.09
2022-10-11T10:28:36.907Z,101877.00
2022-10-11T10:31:03.744Z,101855.66
2022-10-11T10:33:33.640Z,101854.66
2022-10-11T10:36:13.401Z,101863.72
2022-10-11T10:38:51.994Z,101853.69
2022-10-11T10:41:19.252Z,101860.31
2022-10-11T10:43:56.092Z,101864.50
2022-10-11T10:47:00.070Z,101874.78
2022-10-11T10:49:54.106Z,101869.09
2022-10-11T10:52:40.013Z,101872.69
2022-10-11T10:55:33.007Z,101863.44
2022-10-11T10:58:22.306Z,101852.81
2022-10-11T11:00:50.561Z,101860.63
2022-10-11T11:03:36.462Z,101847.22
2022-10-11T11:06:08.573Z,101862.00
2022-10-11T11:09:11.418Z,101867.06
2022-10-11T11:11:48.172Z,101866.56
2022-10-11T11:14:25.058Z,101838.28
2022-10-11T11:17:29.237Z,101866.34
2022-10-11T11:20:26.575Z,101856.06
2022-10-11T11:23:11.722Z,101870.44
2022-10-11T11:26:03.401Z,101884.19
2022-10-11T11:28:52.125Z,101904.53
2022-10-11T11:31:42.225Z,101897.75
2022-10-11T11:34:38.085Z,101895.94
2022-10-11T11:37:07.202Z,101882.31
2022-10-11T11:39:43.538Z,101878.00
2022-10-11T11:42:25.360Z,101884.03
2022-10-11T11:44:52.180Z,101879.34
2022-10-11T11:47:34.852Z,101878.06
2022-10-11T11:50:15.324Z,101886.59
2022-10-11T11:52:44.899Z,101889.63
2022-10-11T11:55:18.914Z,101903.63
2022-10-11T11:57:59.437Z,101904.94
2022-10-11T12:01:00.866Z,101920.16
2022-10-11T12:03:30.744Z,101916.47
2022-10-11T12:06:20.660Z,101933.59
2022-10-11T12:08:48.933Z,101942.34
2022-10-11T12:11:21.111Z,101928.78
2022-10-11T12:13:48.116Z,101906.16
2022-10-11T12:16:18.261Z,101909.84
2022-10-11T12:18:54.232Z,101886.88
2022-10-11T12:21:40.655Z,101897.84
2022-10-11T12:24:19.394Z,101911.06
2022-10-11T12:26:47.414Z,101902.94
2022-10-11T12:29:17.322Z,101897.53
2022-10-11T12:31:46.281Z,101902.28
2022-10-11T12:34:19.246Z,101904.94
2022-10-11T12:36:50.124Z,101915.22
2022-10-11T12:39:19.832Z,101924.56
2022-10-11T12:41:50.013Z,101924.88
2022-10-11T12:44:27.307Z,101922.88
2022-10-11T12:46:54.030Z,101937.22
2022-10-11T12:49:45.231Z,101928.47
2022-10-11T12:52:18.183Z,101941.88
2022-10-11T12:54:54.610Z,101936.88
2022-10-11T12:57:36.334Z,101931.47
2022-10-11T13:00:21.749Z,101933.34
2022-10-11T13:02:49.228Z,101930.28
2022-10-11T13:05:19.008Z,101942.88
2022-10-11T13:07:46.649Z,101946.59
2022-10-11T13:10:27.983Z,101947.31
2022-10-11T13:12:55.165Z,101944.56
2022-10-11T13:15:22.593Z,101937.38
2022-10-11T13:17:51.809Z,101941.44
2022-10-11T13:20:19.929Z,101938.50
2022-10-11T13:22:48.705Z,101934.63
2022-10-11T13:25:21.347Z,101954.41
2022-10-11T13:27:48.470Z,101943.66
2022-10-11T13:30:28.485Z,101949.44
2022-10-11T13:32:55.407Z,101951.94
2022-10-11T13:35:35.788Z,101960.66
2022-10-11T13:38:02.970Z,101944.59
2022-10-11T13:40:29.830Z,101960.75
2022-10-11T13:42:56.725Z,101962.59
2022-10-11T13:45:25.169Z,101971.66
2022-10-11T13:47:53.149Z,101969.03
2022-10-11T13:50:37.145Z,101977.19
2022-10-11T13:53:09.933Z,101982.56
2022-10-11T13:55:55.733Z,101984.47
2022-10-11T13:58:30.392Z,101981.63
2022-10-11T14:00:59.000Z,101987.66
2022-10-11T14:03:45.748Z,101999.50
2022-10-11T14:06:12.567Z,101983.75
2022-10-11T14:08:42.353Z,101997.53
2022-10-11T14:11:10.509Z,102002.91
2022-10-11T14:13:38.290Z,102009.91
2022-10-11T14:16:10.003Z,101991.44
2022-10-11T14:18:58.348Z,101998.75
2022-10-11T14:21:45.348Z,102013.59
2022-10-11T14:24:12.327Z,102005.25
2022-10-11T14:26:44.166Z,102007.38
2022-10-11T14:29:19.010Z,102017.03
2022-10-11T14:31:45.931Z,102018.84
2022-10-11T14:34:20.368Z,102019.13
2022-10-11T14:36:47.469Z,102015.31
2022-10-11T14:39:18.491Z,102023.09
2022-10-11T14:41:45.387Z,102006.34
2022-10-11T14:44:12.485Z,102014.56
2022-10-11T14:46:40.973Z,102015.16
2022-10-11T14:49:18.009Z,102018.81
2022-10-11T14:51:45.783Z,102024.25
2022-10-11T14:54:13.307Z,102013.97
2022-10-11T14:56:40.149Z,102018.00
2022-10-11T14:59:06.969Z,102023.00
2022-10-11T15:01:33.944Z,102022.94
2022-10-11T15:04:00.885Z,102028.06
2022-10-11T15:06:32.145Z,102028.19
2022-10-11T15:08:59.070Z,102020.84
2022-10-11T15:11:25.933Z,102033.34
2022-10-11T15:13:53.027Z,102044.56
2022-10-11T15:16:20.550Z,102034.69
2022-10-11T15:18:52.028Z,102040.63
2022-10-11T15:21:20.174Z,102035.97
2022-10-11T15:23:47.587Z,102046.88
2022-10-11T15:26:27.109Z,102060.88
2022-10-11T15:28:55.379Z,102055.88
2022-10-11T15:31:22.498Z,102052.91
2022-10-11T15:33:49.655Z,102055.69
2022-10-11T15:36:18.505Z,102056.88
2022-10-11T15:38:45.579Z,102049.66
2022-10-11T15:41:13.930Z,102061.34
2022-10-11T15:43:40.777Z,102056.59
2022-10-11T15:46:08.509Z,102063.63
2022-10-11T15:48:35.853Z,102065.50
2022-10-11T15:51:02.669Z,102068.16
2022-10-11T15:53:31.273Z,102067.00
2022-10-11T15:55:59.810Z,102076.31
2022-10-11T15:58:31.712Z,102085.34
2022-10-11T16:01:00.551Z,102074.72
2022-10-11T16:03:28.649Z,102090.34
2022-10-11T16:05:55.787Z,102090.75
2022-10-11T16:08:22.747Z,102077.66
2022-10-11T16:10:49.769Z,102084.41
2022-10-11T16:13:17.113Z,102089.72
2022-10-11T16:15:44.404Z,102093.13
2022-10-11T16:18:13.491Z,102085.03
2022-10-11T16:20:45.192Z,102090.56
2022-10-11T16:23:12.489Z,102084.25
2022-10-11T16:25:39.428Z,102092.84
2022-10-11T16:28:08.146Z,102101.13
2022-10-11T16:30:38.427Z,102105.31
2022-10-11T16:33:05.351Z,102108.59
2022-10-11T16:35:32.737Z,102112.56
2022-10-11T16:38:00.956Z,102112.88
2022-10-11T16:40:29.925Z,102117.28
2022-10-11T16:42:56.866Z,102117.91
2022-10-11T16:45:23.726Z,102112.72
2022-10-11T16:47:50.696Z,102112.63
2022-10-11T16:50:17.550Z,102113.97
2022-10-11T16:52:44.543Z,102097.41
2022-10-11T16:55:11.669Z,102118.13
2022-10-11T16:57:38.530Z,102127.22
2022-10-11T17:00:07.151Z,102121.75
2022-10-11T17:02:34.073Z,102117.31
2022-10-11T17:05:01.032Z,102113.66
2022-10-11T17:07:27.971Z,102129.34
2022-10-11T17:09:54.992Z,102124.69
2022-10-11T17:12:23.067Z,102126.97
2022-10-11T17:14:50.049Z,102132.38
2022-10-11T17:17:17.207Z,102135.19
2022-10-11T17:19:45.503Z,102130.78
2022-10-11T17:22:13.645Z,102134.53
2022-10-11T17:24:40.550Z,102138.00
2022-10-11T17:27:07.510Z,102129.06
2022-10-11T17:29:34.351Z,102138.56
2022-10-11T17:32:01.519Z,102136.81
2022-10-11T17:34:28.489Z,102132.53
2022-10-11T17:36:55.389Z,102147.63
2022-10-11T17:39:22.967Z,102131.59
2022-10-11T17:41:50.006Z,102142.47
2022-10-11T17:44:20.055Z,102137.44
2022-10-11T17:46:47.085Z,102141.47
2022-10-11T17:49:14.171Z,102135.13
2022-10-11T17:51:41.336Z,102146.22
2022-10-11T17:54:12.509Z,102141.47
2022-10-11T17:56:40.510Z,102147.19
2022-10-11T17:59:07.829Z,102146.72
2022-10-11T18:01:34.883Z,102142.69
2022-10-11T18:04:03.575Z,102133.09
2022-10-11T18:06:31.987Z,102136.66
2022-10-11T18:09:02.477Z,102148.09
2022-10-11T18:11:29.391Z,102141.88
2022-10-11T18:13:56.227Z,102143.47
2022-10-11T18:16:24.635Z,102137.66
2022-10-11T18:18:51.511Z,102139.44
2022-10-11T18:21:18.888Z,102143.81
2022-10-11T18:23:46.070Z,102144.75
2022-10-11T18:26:17.751Z,102138.78
2022-10-11T18:28:45.122Z,102133.91
2022-10-11T18:31:15.094Z,102135.69
2022-10-11T18:33:42.356Z,102142.59
2022-10-11T18:36:10.531Z,102153.22
2022-10-11T18:38:38.225Z,102148.66
2022-10-11T18:41:06.888Z,102146.88
2022-10-11T18:43:34.486Z,102143.44
2022-10-11T18:46:08.587Z,102151.44
2022-10-11T18:48:35.569Z,102142.03
2022-10-11T18:51:06.312Z,102152.28
2022-10-11T18:53:36.814Z,102141.38
2022-10-11T18:56:05.437Z,102148.00
2022-10-11T18:58:33.231Z,102140.81
2022-10-11T19:01:10.324Z,102146.47
2022-10-11T19:03:37.425Z,102150.31
2022-10-11T19:06:05.820Z,102149.38
2022-10-11T19:08:33.089Z,102148.81
2022-10-11T19:11:08.721Z,102153.84
2022-10-11T19:13:35.856Z,102155.81
2022-10-11T19:16:08.020Z,102152.53
2022-10-11T19:18:35.158Z,102147.56
2022-10-11T19:21:06.706Z,102153.63
2022-10-11T19:23:39.543Z,102153.44
2022-10-11T19:26:08.009Z,102146.84
2022-10-11T19:28:35.207Z,102144.31
2022-10-11T19:31:04.019Z,102140.69
2022-10-11T19:33:32.363Z,102134.03
2022-10-11T19:36:00.032Z,102147.56
2022-10-11T19:38:26.912Z,102146.00
2022-10-11T19:40:54.023Z,102143.75
2022-10-11T19:43:21.112Z,102145.50
2022-10-11T19:45:48.059Z,102157.44
2022-10-11T19:48:14.889Z,102145.69
2022-10-11T19:50:41.761Z,102146.69
2022-10-11T19:53:08.622Z,102150.91
2022-10-11T19:55:35.476Z,102147.88
2022-10-11T19:58:08.088Z,102155.78
2022-10-11T20:00:35.165Z,102154.28
2022-10-11T20:03:02.067Z,102163.72
2022-10-11T20:05:28.900Z,102156.13
2022-10-11T20:07:55.673Z,102151.25
2022-10-11T20:10:22.500Z,102159.94
2022-10-11T20:12:49.403Z,102157.56
2022-10-11T20:15:16.321Z,102158.69
2022-10-11T20:17:48.883Z,102171.81
2022-10-11T20:20:16.945Z,102153.22
2022-10-11T20:22:43.848Z,102162.53
2022-10-11T20:25:10.803Z,102171.19
2022-10-11T20:27:37.941Z,102167.84
2022-10-11T20:30:05.444Z,102163.78
2022-10-11T20:32:32.331Z,102171.53
2022-10-11T20:34:59.183Z,102179.44
2022-10-11T20:37:26.210Z,102170.28
2022-10-11T20:39:53.030Z,102142.47
2022-10-11T20:42:19.862Z,102174.72
2022-10-11T20:44:48.289Z,102176.41
2022-10-11T20:47:15.282Z,102183.47
2022-10-11T20:49:42.162Z,102177.50
2022-10-11T20:52:09.041Z,102167.75
2022-10-11T20:54:35.904Z,102171.03
2022-10-11T20:57:03.093Z,102163.03
2022-10-11T20:59:29.979Z,102175.66
2022-10-11T21:01:57.466Z,102174.88
2022-10-11T21:04:24.343Z,102166.56
2022-10-11T21:06:51.144Z,102177.66
2022-10-11T21:09:18.045Z,102166.56
2022-10-11T21:11:45.026Z,102180.44
2022-10-11T21:14:11.862Z,102168.84
2022-10-11T21:16:38.727Z,102180.94
2022-10-11T21:19:06.323Z,102187.34
2022-10-11T21:21:33.244Z,102175.47
2022-10-11T21:24:01.036Z,102178.75
2022-10-11T21:26:28.044Z,102170.19
2022-10-11T21:28:55.023Z,102176.22
2022-10-11T21:31:22.187Z,102173.34
2022-10-11T21:33:49.047Z,102165.25
2022-10-11T21:36:16.610Z,102183.25
2022-10-11T21:38:43.664Z,102189.22
2022-10-11T21:41:12.441Z,102186.88
2022-10-11T21:43:39.302Z,102182.31
2022-10-11T21:46:19.584Z,102190.50
2022-10-11T21:48:46.723Z,102196.34
2022-10-11T21:51:33.723Z,102190.09
2022-10-11T21:54:00.908Z,102192.31
2022-10-11T21:56:28.325Z,102175.59
2022-10-11T21:58:55.300Z,102194.16
2022-10-11T22:01:22.192Z,102198.09
2022-10-11T22:03:49.125Z,102183.28
2022-10-11T22:06:16.201Z,102194.22
2022-10-11T22:08:43.081Z,102193.69
2022-10-11T22:11:09.961Z,102199.94
2022-10-11T22:13:36.883Z,102182.16
2022-10-11T22:16:08.242Z,102181.78
2022-10-11T22:18:35.082Z,102184.47
2022-10-11T22:21:13.525Z,102191.84
2022-10-11T22:23:41.146Z,102195.00
2022-10-11T22:26:13.429Z,102199.28
2022-10-11T22:28:40.725Z,102186.53
2022-10-11T22:31:08.263Z,102194.47
2022-10-11T22:33:35.421Z,102199.13
2022-10-11T22:36:03.560Z,102183.91
2022-10-11T22:38:30.462Z,102193.53
2022-10-11T22:41:00.161Z,102179.44
2022-10-11T22:43:26.985Z,102196.63
2022-10-11T22:45:53.861Z,102180.66
2022-10-11T22:48:20.664Z,102180.94
2022-10-11T22:50:47.582Z,102183.72
2022-10-11T22:53:14.723Z,102182.50
2022-10-11T22:55:41.584Z,102193.09
2022-10-11T22:58:08.504Z,102194.41
2022-10-11T23:00:35.420Z,102182.16
2022-10-11T23:03:02.282Z,102193.16
2022-10-11T23:05:29.141Z,102203.81
2022-10-11T23:07:56.102Z,102193.09
2022-10-11T23:10:22.923Z,102192.50
2022-10-11T23:12:49.844Z,102202.38
2022-10-11T23:15:16.883Z,102188.50
2022-10-11T23:17:43.723Z,102197.34
2022-10-11T23:20:11.122Z,102197.88
2022-10-11T23:22:38.023Z,102202.97
2022-10-11T23:25:05.663Z,102200.69
2022-10-11T23:27:32.547Z,102201.78
2022-10-11T23:29:59.384Z,102197.00
2022-10-11T23:32:26.229Z,102206.47
2022-10-11T23:34:53.142Z,102208.41
2022-10-11T23:37:20.163Z,102204.22
2022-10-11T23:39:47.022Z,102193.22
2022-10-11T23:42:13.861Z,102196.59
2022-10-11T23:44:40.720Z,102202.19
2022-10-11T23:47:07.624Z,102190.69
2022-10-11T23:49:34.484Z,102200.22
2022-10-11T23:52:01.414Z,102195.22
2022-10-11T23:54:28.262Z,102199.59
2022-10-11T23:56:55.124Z,102205.59
2022-10-11T23:59:21.962Z,102208.63
